Time;durP1;ratioP1;P1;durP2;ratioP2;P2;SDS_P1;SDS_P2;PMS_P1;PMS_P2;Temp;Humidity;BMP_temperature;BMP_pressure;BME280_temperature;BME280_humidity;BME280_pressure;Samples;Min_cycle;Max_cycle;Signal;HPM_P1;HPM_P2
2022/09/07 00:00:12;;;;;;;;;;;;;;;29.13;73.41;100747.41;5038611;28;70688;-32
2022/09/07 00:02:44;;;;;;;29.33;23.50;;;;;;;29.35;73.16;100750.66;5037691;28;66085;-33
2022/09/07 00:05:16;;;;;;;;;;;;;;;29.16;73.78;100765.88;5040348;28;69964;-33
2022/09/07 00:07:48;;;;;;;28.30;22.27;;;;;;;29.38;73.26;100763.75;5040232;28;66803;-32
2022/09/07 00:10:22;;;;;;;39.70;24.17;;;;;;;29.44;73.11;100771.00;5038987;28;70127;-32
2022/09/07 00:12:54;;;;;;;28.90;22.75;;;;;;;29.46;72.73;100784.31;5034008;28;67087;-32
2022/09/07 00:15:25;;;;;;;;;;;;;;;29.11;73.87;100763.84;5035519;28;70731;-32
2022/09/07 00:17:58;;;;;;;26.08;23.17;;;;;;;29.37;73.60;100794.53;5040257;28;65960;-32
2022/09/07 00:20:30;;;;;;;32.38;25.85;;;;;;;29.49;74.15;100795.50;5035250;28;70835;-33
2022/09/07 00:23:02;;;;;;;;;;;;;;;29.29;74.76;100810.97;5040392;28;66286;-35
2022/09/07 00:25:40;;;;;;;38.63;25.30;;;;;;;29.53;73.74;100828.34;5037867;28;70611;-34
2022/09/07 00:28:12;;;;;;;35.45;31.25;;;;;;;29.51;75.01;100825.03;5037699;28;66932;-34
2022/09/07 00:30:43;;;;;;;;;;;;;;;29.31;75.75;100834.03;5031576;28;69629;-34
2022/09/07 00:33:16;;;;;;;44.53;30.85;;;;;;;29.28;74.92;100793.94;5034394;28;67120;-35
2022/09/07 00:35:48;;;;;;;;;;;;;;;29.35;75.97;100829.84;5034788;28;70627;-42
2022/09/07 00:38:20;;;;;;;33.63;26.27;;;;;;;29.54;72.02;100844.34;5048873;28;67409;-33
2022/09/07 00:40:52;;;;;;;38.03;25.45;;;;;;;29.58;71.08;100839.34;5072111;28;71026;-34
2022/09/07 00:43:30;;;;;;;;;;;;;;;29.26;73.68;100846.50;5062962;28;66006;-35
2022/09/07 00:46:05;;;;;;;29.55;23.25;;;;;;;29.58;71.20;100872.63;5078334;28;70298;-33
2022/09/07 00:48:51;;;;;;;33.05;23.45;;;;;;;29.56;70.77;100854.94;5079484;28;66324;-34
2022/09/07 00:51:37;;;;;;;28.20;22.42;;;;;;;29.57;70.62;100859.31;5075791;27;69025;-33
2022/09/07 00:54:16;;;;;;;28.30;23.45;;;;;;;29.47;70.48;100834.59;5077244;27;66249;-33
2022/09/07 00:56:51;;;;;;;26.95;22.13;;;;;;;29.59;69.81;100846.44;5075990;28;70916;-33
2022/09/07 00:59:33;;;;;;;38.47;23.73;;;;;;;29.60;69.88;100861.59;5076804;28;66356;-33
2022/09/07 01:02:06;;;;;;;24.58;21.25;;;;;;;29.61;69.81;100865.94;5074170;28;70851;-32
2022/09/07 01:04:39;;;;;;;27.48;22.85;;;;;;;29.70;69.38;100870.16;5074121;28;66276;-33
2022/09/07 01:07:11;;;;;;;29.23;22.38;;;;;;;29.71;69.16;100874.50;5074642;28;70640;-33
2022/09/07 01:09:46;;;;;;;32.47;22.10;;;;;;;29.72;69.06;100878.03;5065833;28;66786;-33
2022/09/07 01:12:18;;;;;;;29.13;22.05;;;;;;;29.69;68.90;100870.34;5074639;28;70034;-32
2022/09/07 01:14:52;;;;;;;25.73;22.08;;;;;;;29.63;68.74;100863.91;5081161;27;66306;-33
2022/09/07 01:17:57;;;;;;;24.23;21.63;;;;;;;29.70;69.41;100886.38;5078644;28;70969;-34
2022/09/07 01:20:49;;;;;;;27.58;21.98;;;;;;;29.73;69.43;100888.63;5076729;28;66583;-33
2022/09/07 01:23:42;;;;;;;30.23;22.55;;;;;;;29.74;68.87;100887.59;5078521;28;70865;-34
2022/09/07 01:26:16;;;;;;;31.75;22.15;;;;;;;29.76;68.68;100899.03;5079799;28;66918;-33
2022/09/07 01:28:58;;;;;;;32.90;22.83;;;;;;;29.44;68.65;100837.72;5076899;27;70098;-32
2022/09/07 01:31:30;;;;;;;32.97;21.67;;;;;;;29.75;69.02;100900.03;5077586;28;66991;-32
2022/09/07 01:34:20;;;;;;;26.20;21.95;;;;;;;29.65;68.74;100888.88;5077477;28;70309;-37
2022/09/07 01:37:09;;;;;;;27.02;21.23;;;;;;;29.76;68.53;100906.31;5078926;28;66095;-33
2022/09/07 01:39:53;;;;;;;22.80;20.40;;;;;;;29.72;68.78;100892.38;5076886;28;70415;-33
2022/09/07 01:42:33;;;;;;;32.35;20.67;;;;;;;29.81;68.44;100915.44;5077106;28;66625;-33
2022/09/07 01:45:11;;;;;;;23.65;20.30;;;;;;;29.71;68.29;100888.00;5066944;28;71134;-34
2022/09/07 01:47:48;;;;;;;24.83;20.15;;;;;;;29.84;68.31;100915.03;5074044;28;66971;-34
2022/09/07 01:50:45;;;;;;;24.75;19.83;;;;;;;29.77;68.44;100891.75;5072117;28;70061;-32
2022/09/07 01:53:40;;;;;;;26.33;19.80;;;;;;;29.83;68.30;100907.94;5079303;28;66007;-33
2022/09/07 01:56:17;;;;;;;22.67;19.70;;;;;;;29.84;68.40;100904.19;5074281;28;71287;-35
2022/09/07 01:58:55;;;;;;;22.38;20.27;;;;;;;29.84;68.45;100904.19;5075189;28;66862;-33
2022/09/07 02:01:34;;;;;;;22.00;19.77;;;;;;;29.86;68.47;100911.25;5076269;28;70702;-35
2022/09/07 02:04:19;;;;;;;23.13;20.48;;;;;;;29.73;68.38;100899.44;5074047;27;65894;-34
2022/09/07 02:07:12;;;;;;;22.65;20.27;;;;;;;29.66;68.43;100890.50;5074041;28;70769;-34
2022/09/07 02:09:53;;;;;;;21.25;19.02;;;;;;;29.92;67.82;100915.81;5078330;28;66949;-33
2022/09/07 02:12:54;;;;;;;23.15;20.70;;;;;;;29.78;68.15;100918.56;5076753;28;70420;-34
2022/09/07 02:15:48;;;;;;;20.52;18.35;;;;;;;29.78;67.71;100899.66;5057947;28;65716;-34
2022/09/07 02:18:23;;;;;;;23.45;19.95;;;;;;;29.93;67.75;100914.78;5075193;28;71206;-32
2022/09/07 02:20:58;;;;;;;23.02;19.88;;;;;;;29.59;68.10;100862.66;5076265;28;66760;-32
2022/09/07 02:23:40;;;;;;;28.52;20.30;;;;;;;29.49;67.59;100846.03;5075387;27;70159;-33
2022/09/07 02:26:20;;;;;;;22.67;19.45;;;;;;;29.92;67.79;100911.25;5070828;28;66710;-33
2022/09/07 02:28:52;;;;;;;21.30;18.95;;;;;;;29.97;68.04;100913.31;5071943;27;70082;-33
2022/09/07 02:31:25;;;;;;;22.05;19.50;;;;;;;29.98;67.76;100913.09;5076023;28;66950;-33
2022/09/07 02:33:59;;;;;;;22.35;18.77;;;;;;;30.00;67.52;100919.09;5075948;28;70228;-32
2022/09/07 02:36:40;;;;;;;23.25;19.10;;;;;;;29.98;67.54;100909.56;5077665;27;67158;-33
2022/09/07 02:39:13;;;;;;;19.77;17.67;;;;;;;30.01;67.99;100917.25;5074976;28;70555;-33
2022/09/07 02:41:45;;;;;;;20.70;17.95;;;;;;;30.03;67.70;100907.88;5071437;28;66142;-34
2022/09/07 02:44:31;;;;;;;20.48;18.58;;;;;;;30.03;67.70;100921.41;5074061;28;70482;-33
2022/09/07 02:47:24;;;;;;;19.90;17.95;;;;;;;30.08;67.82;100909.94;5074232;28;65786;-33
2022/09/07 02:50:38;;;;;;;19.02;17.13;;;;;;;29.96;68.02;100906.25;5068440;28;70697;-35
2022/09/07 02:53:21;;;;;;;18.35;16.58;;;;;;;30.08;67.51;100907.22;5077538;27;66083;-34
2022/09/07 02:56:05;;;;;;;;;;;;;;;29.76;68.64;100907.13;5079824;28;70694;-36
2022/09/07 02:59:00;;;;;;;17.65;15.40;;;;;;;30.09;67.52;100913.47;5074591;28;66347;-33
2022/09/07 03:01:55;;;;;;;17.42;15.63;;;;;;;29.22;67.84;100775.84;5078589;28;70111;-34
2022/09/07 03:04:41;;;;;;;16.80;15.15;;;;;;;30.12;67.10;100907.66;5079204;28;66852;-34
2022/09/07 03:07:28;;;;;;;15.45;14.02;;;;;;;29.65;67.20;100831.28;5072744;28;70931;-34
2022/09/07 03:10:07;;;;;;;18.02;14.48;;;;;;;30.15;67.22;100923.44;5069343;28;66325;-33
2022/09/07 03:12:48;;;;;;;17.30;14.30;;;;;;;29.81;66.94;100864.06;5068569;28;70492;-33
2022/09/07 03:15:24;;;;;;;15.65;14.18;;;;;;;29.89;66.66;100865.69;5074948;28;66249;-34
2022/09/07 03:17:56;;;;;;;15.35;13.93;;;;;;;30.22;67.23;100906.16;5076897;27;69937;-33
2022/09/07 03:20:28;;;;;;;14.88;13.73;;;;;;;30.25;67.08;100904.88;5079696;28;67336;-33
2022/09/07 03:23:00;;;;;;;;;;;;;;;29.94;68.00;100903.75;5082436;28;70799;-36
2022/09/07 03:25:32;;;;;;;15.50;13.10;;;;;;;30.19;67.17;100895.72;5072638;28;66919;-35
2022/09/07 03:28:05;;;;;;;13.40;12.20;;;;;;;30.25;67.00;100884.06;5080783;27;70633;-33
2022/09/07 03:30:42;;;;;;;13.98;12.68;;;;;;;30.10;66.50;100848.34;5068155;28;66965;-32
2022/09/07 03:33:16;;;;;;;13.50;12.20;;;;;;;30.23;66.41;100859.13;5071471;28;70801;-33
2022/09/07 03:35:58;;;;;;;13.68;12.52;;;;;;;30.30;66.57;100875.31;5076122;28;66201;-34
2022/09/07 03:38:32;;;;;;;13.25;12.07;;;;;;;30.37;66.52;100876.13;5075585;28;70128;-34
2022/09/07 03:41:04;;;;;;;;;;;;;;;30.09;67.32;100879.16;5076618;27;66768;-34
2022/09/07 03:43:36;;;;;;;11.75;10.57;;;;;;;30.39;66.85;100870.47;5074548;28;70858;-31
2022/09/07 03:46:09;;;;;;;;;;;;;;;30.11;67.38;100868.91;5077090;28;67001;-33
2022/09/07 03:48:41;;;;;;;12.25;10.95;;;;;;;30.42;66.75;100861.91;5073487;28;69812;-34
2022/09/07 03:51:14;;;;;;;;;;;;;;;30.14;66.86;100854.97;5077695;28;67096;-33
2022/09/07 03:53:46;;;;;;;12.00;10.75;;;;;;;30.46;66.39;100850.44;5080926;27;70898;-32
2022/09/07 03:56:21;;;;;;;13.98;10.25;;;;;;;30.40;66.23;100828.84;5080611;27;66199;-35
2022/09/07 03:58:54;;;;;;;11.60;10.05;;;;;;;30.55;65.84;100840.19;5078943;27;70765;-33
2022/09/07 04:01:27;;;;;;;10.73;9.75;;;;;;;30.47;65.89;100821.50;5075044;27;66749;-32
2022/09/07 04:04:01;;;;;;;11.20;10.10;;;;;;;30.47;65.71;100821.50;5075962;28;70643;-33
2022/09/07 04:06:33;;;;;;;15.90;10.52;;;;;;;30.60;66.05;100832.22;5079086;27;66211;-33
2022/09/07 04:09:14;;;;;;;12.70;10.23;;;;;;;30.63;65.80;100831.78;5078483;28;70258;-33
2022/09/07 04:11:46;;;;;;;15.98;10.38;;;;;;;30.64;66.02;100827.19;5078726;28;66852;-33
2022/09/07 04:14:19;;;;;;;12.43;10.10;;;;;;;30.57;66.03;100811.03;5078649;28;70799;-33
2022/09/07 04:16:51;;;;;;;12.90;9.70;;;;;;;30.63;65.65;100820.97;5077335;27;66856;-34
2022/09/07 04:19:23;;;;;;;16.73;9.27;;;;;;;30.68;65.34;100823.84;5077795;28;70009;-34
2022/09/07 04:21:56;;;;;;;12.32;9.07;;;;;;;30.68;65.73;100815.72;5079794;27;66929;-33
2022/09/07 04:24:28;;;;;;;18.85;9.77;;;;;;;30.72;65.93;100814.22;5078864;28;71691;-33
2022/09/07 04:27:01;;;;;;;12.30;8.50;;;;;;;30.73;65.78;100805.06;5078125;28;66183;-32
2022/09/07 04:29:33;;;;;;;11.43;8.15;;;;;;;30.76;65.75;100809.22;5079726;27;70959;-33
2022/09/07 04:32:05;;;;;;;7.80;7.20;;;;;;;30.79;65.60;100802.53;5079014;28;66381;-33
2022/09/07 04:34:43;;;;;;;9.30;8.40;;;;;;;30.81;65.79;100795.00;5078149;28;70091;-32
2022/09/07 04:37:14;;;;;;;;;;;;;;;30.52;65.73;100797.31;5068600;28;66401;-34
2022/09/07 04:39:46;;;;;;;8.60;7.30;;;;;;;30.77;65.47;100794.59;5078470;28;70398;-34
2022/09/07 04:42:18;;;;;;;8.90;8.00;;;;;;;30.83;65.23;100792.91;5078396;28;66226;-33
2022/09/07 04:44:51;;;;;;;8.55;7.63;;;;;;;30.84;65.18;100790.00;5081166;28;70109;-35
2022/09/07 04:47:24;;;;;;;8.40;7.68;;;;;;;30.85;65.82;100790.84;5074981;27;66877;-34
2022/09/07 04:49:56;;;;;;;9.50;7.00;;;;;;;30.82;65.66;100780.44;5070631;28;70006;-32
2022/09/07 04:52:28;;;;;;;7.45;6.85;;;;;;;30.85;65.74;100788.94;5076198;28;67267;-37
2022/09/07 04:55:00;;;;;;;7.25;6.57;;;;;;;30.87;65.47;100788.72;5072690;28;70152;-34
2022/09/07 04:57:32;;;;;;;;;;;;;;;30.54;66.43;100778.97;5077371;28;66019;-35
2022/09/07 05:00:11;;;;;;;7.90;7.03;;;;;;;30.47;65.84;100729.47;5078396;27;70337;-33
2022/09/07 05:02:43;;;;;;;8.93;6.75;;;;;;;30.85;65.86;100769.16;5072639;28;66566;-34
2022/09/07 05:05:16;;;;;;;6.72;6.13;;;;;;;30.85;65.50;100763.75;5075807;28;70163;-34
2022/09/07 05:07:48;;;;;;;6.97;6.30;;;;;;;30.55;65.54;100720.25;5077811;28;66397;-34
2022/09/07 05:10:19;;;;;;;;;;;;;;;30.55;67.14;100764.38;5068799;28;70899;-35
2022/09/07 05:12:52;;;;;;;8.40;6.63;;;;;;;30.78;66.58;100769.16;5073706;27;65767;-34
2022/09/07 05:15:24;;;;;;;6.38;5.75;;;;;;;30.82;65.90;100759.59;5073755;28;70991;-33
2022/09/07 05:17:57;;;;;;;7.15;6.43;;;;;;;30.82;66.01;100748.78;5075968;28;65814;-35
2022/09/07 05:20:30;;;;;;;8.82;4.43;;;;;;;30.81;66.95;100746.28;5080173;27;70783;-35
2022/09/07 05:23:02;;;;;;;4.00;3.80;;;;;;;30.50;66.70;100699.25;5077333;27;65346;-34
2022/09/07 05:25:34;;;;;;;4.28;3.90;;;;;;;30.72;66.90;100735.69;5074440;28;71084;-34
2022/09/07 05:28:06;;;;;;;4.60;4.20;;;;;;;30.74;66.86;100724.66;5077444;28;66932;-35
2022/09/07 05:30:39;;;;;;;4.72;4.22;;;;;;;30.77;66.75;100735.03;5076912;27;70336;-34
2022/09/07 05:33:32;;;;;;;5.43;4.93;;;;;;;30.73;66.92;100745.50;5076133;27;66966;-37
2022/09/07 05:36:25;;;;;;;5.63;3.53;;;;;;;30.73;67.12;100745.50;5075159;28;70944;-35
2022/09/07 05:38:58;;;;;;;9.68;3.50;;;;;;;30.74;67.14;100751.72;5077428;28;67143;-34
2022/09/07 05:41:30;;;;;;;3.90;3.63;;;;;;;30.61;67.16;100714.75;5074147;27;71080;-38
2022/09/07 05:44:05;;;;;;;4.20;3.47;;;;;;;30.73;67.09;100728.41;5072482;28;65884;-32
2022/09/07 05:46:57;;;;;;;3.42;3.03;;;;;;;30.71;67.08;100720.50;5079435;28;70800;-34
2022/09/07 05:49:32;;;;;;;2.92;2.67;;;;;;;30.70;67.02;100724.28;5076490;28;43131;-33
2022/09/07 05:52:04;;;;;;;2.97;2.75;;;;;;;30.71;67.04;100731.34;5072008;28;70935;-34
2022/09/07 05:54:37;;;;;;;3.47;2.53;;;;;;;30.71;67.22;100716.97;5077997;27;67281;-32
2022/09/07 05:57:11;;;;;;;3.13;2.83;;;;;;;30.71;66.88;100709.69;5068933;28;70924;-33
2022/09/07 05:59:44;;;;;;;4.32;2.65;;;;;;;30.68;67.53;100704.72;5071279;27;67653;-32
2022/09/07 06:02:17;;;;;;;2.72;2.20;;;;;;;30.69;67.35;100698.22;5074084;28;70270;-33
2022/09/07 06:04:49;;;;;;;4.43;2.70;;;;;;;30.68;67.45;100699.28;5077231;28;66838;-32
2022/09/07 06:07:21;;;;;;;3.75;2.78;;;;;;;30.68;67.28;100693.88;5071931;28;70127;-34
2022/09/07 06:09:54;;;;;;;2.63;2.42;;;;;;;30.56;66.85;100671.28;5073307;28;67341;-34
2022/09/07 06:12:47;;;;;;;2.08;1.98;;;;;;;30.55;67.32;100669.63;5067791;28;70661;-33
2022/09/07 06:15:19;;;;;;;2.67;2.50;;;;;;;30.28;66.69;100620.34;5076612;27;66766;-33
2022/09/07 06:17:52;;;;;;;2.40;2.30;;;;;;;30.67;66.76;100681.41;5078916;27;69991;-33
2022/09/07 06:20:24;;;;;;;2.15;2.03;;;;;;;30.69;66.59;100678.47;5073692;28;66377;-33
2022/09/07 06:22:58;;;;;;;3.95;2.20;;;;;;;30.69;66.91;100678.47;5074850;28;70389;-32
2022/09/07 06:25:30;;;;;;;2.15;2.05;;;;;;;30.70;66.95;100672.84;5073140;28;66536;-33
2022/09/07 06:28:02;;;;;;;2.75;2.45;;;;;;;30.71;67.05;100670.94;5076068;27;70508;-34
2022/09/07 06:30:34;;;;;;;2.95;2.28;;;;;;;30.70;67.06;100658.44;5052946;28;66083;-34
2022/09/07 06:33:07;;;;;;;2.50;2.30;;;;;;;30.72;66.58;100661.75;5076698;28;70418;-34
2022/09/07 06:35:39;;;;;;;3.88;2.42;;;;;;;30.61;66.32;100641.66;5077254;27;65551;-33
2022/09/07 06:38:11;;;;;;;3.75;1.73;;;;;;;30.72;66.34;100657.16;5071267;27;71470;-35
2022/09/07 06:40:43;;;;;;;;;;;;;;;30.43;67.61;100652.50;5067468;28;66867;-34
2022/09/07 06:43:15;;;;;;;2.75;2.20;;;;;;;30.68;67.13;100650.56;5074551;28;69497;-33
2022/09/07 06:45:53;;;;;;;2.15;1.85;;;;;;;30.74;66.95;100643.41;5077642;27;66916;-34
2022/09/07 06:48:27;;;;;;;2.35;1.83;;;;;;;30.76;66.87;100637.75;5078161;27;70091;-34
2022/09/07 06:51:06;;;;;;;2.38;2.17;;;;;;;30.36;67.09;100575.94;5077462;27;65938;-34
2022/09/07 06:53:38;;;;;;;2.50;2.30;;;;;;;30.78;66.38;100643.78;5081816;28;70234;-33
2022/09/07 06:56:16;;;;;;;2.83;2.50;;;;;;;30.37;66.41;100566.75;5078076;27;66211;-34
2022/09/07 06:58:56;;;;;;;2.80;2.60;;;;;;;30.44;66.68;100578.34;5078414;28;70784;-33
2022/09/07 07:01:28;;;;;;;2.13;1.92;;;;;;;30.80;66.70;100641.72;5079560;28;66637;-32
2022/09/07 07:04:01;;;;;;;2.85;2.47;;;;;;;30.53;66.48;100590.53;5075917;28;70568;-34
2022/09/07 07:06:37;;;;;;;2.50;2.30;;;;;;;30.82;66.59;100634.22;5076871;28;67124;-34
2022/09/07 07:09:12;;;;;;;3.88;2.55;;;;;;;30.62;66.02;100594.63;5073268;27;70662;-35
2022/09/07 07:11:46;;;;;;;4.07;2.45;;;;;;;30.80;66.61;100629.00;5080829;27;67054;-33
2022/09/07 07:14:19;;;;;;;2.33;2.13;;;;;;;30.82;66.76;100635.03;5078274;28;70076;-33
2022/09/07 07:16:52;;;;;;;3.08;2.45;;;;;;;30.84;66.74;100637.50;5081207;28;67222;-35
2022/09/07 07:19:24;;;;;;;2.85;2.20;;;;;;;30.81;66.60;100629.81;5082145;28;70461;-33
2022/09/07 07:21:56;;;;;;;2.35;2.15;;;;;;;30.86;66.18;100635.41;5078963;27;65954;-33
2022/09/07 07:24:48;;;;;;;2.85;2.40;;;;;;;30.85;66.19;100628.34;5078000;28;70086;-34
2022/09/07 07:27:20;;;;;;;1.98;1.88;;;;;;;30.79;66.36;100604.84;5079255;27;66050;-34
2022/09/07 07:29:53;;;;;;;2.00;1.90;;;;;;;30.86;66.33;100617.25;5079412;28;71065;-41
2022/09/07 07:32:26;;;;;;;2.40;2.20;;;;;;;30.76;66.10;100603.41;5074860;28;66048;-34
2022/09/07 07:34:58;;;;;;;3.58;1.98;;;;;;;30.84;66.66;100615.81;5074822;27;70760;-33
2022/09/07 07:37:31;;;;;;;1.70;1.60;;;;;;;30.90;66.54;100623.91;5079280;28;66997;-33
2022/09/07 07:40:05;;;;;;;2.03;1.80;;;;;;;30.81;66.14;100608.16;5073827;27;70539;-34
2022/09/07 07:42:47;;;;;;;2.25;1.83;;;;;;;30.90;66.70;100615.78;5080808;27;66239;-34
2022/09/07 07:45:20;;;;;;;1.80;1.70;;;;;;;30.90;66.17;100621.19;5077352;28;70833;-34
2022/09/07 07:48:13;;;;;;;3.50;1.95;;;;;;;30.84;66.54;100610.41;5069003;28;66415;-34
2022/09/07 07:50:55;;;;;;;1.85;1.75;;;;;;;30.90;66.53;100620.38;5076429;28;69733;-33
2022/09/07 07:53:28;;;;;;;1.83;1.63;;;;;;;30.92;66.17;100626.34;5076180;28;66882;-33
2022/09/07 07:56:16;;;;;;;4.88;1.80;;;;;;;30.90;66.28;100629.31;5073294;28;70615;-33
2022/09/07 07:58:51;;;;;;;1.67;1.48;;;;;;;30.90;66.10;100625.78;5082471;27;66273;-33
2022/09/07 08:01:23;;;;;;;1.85;1.65;;;;;;;30.85;66.72;100612.09;5081180;28;70437;-33
2022/09/07 08:03:56;;;;;;;2.53;1.55;;;;;;;30.91;66.31;100622.00;5078348;27;65964;-33
2022/09/07 08:06:28;;;;;;;4.82;1.85;;;;;;;30.81;66.00;100611.69;5081193;28;70115;-33
2022/09/07 08:09:00;;;;;;;1.75;1.40;;;;;;;30.91;66.23;100628.25;5077550;27;67022;-34
2022/09/07 08:11:34;;;;;;;;;;;;;;;30.62;67.46;100628.94;5081075;28;70585;-33
2022/09/07 08:14:07;;;;;;;4.32;1.52;;;;;;;30.89;66.22;100629.53;5075012;28;66538;-34
2022/09/07 08:16:42;;;;;;;1.75;1.65;;;;;;;30.63;66.18;100598.97;5076799;28;71323;-33
2022/09/07 08:19:14;;;;;;;2.33;1.80;;;;;;;30.89;66.59;100624.94;5082501;27;66036;-34
2022/09/07 08:21:46;;;;;;;1.80;1.60;;;;;;;30.81;66.44;100616.28;5078777;27;70112;-34
2022/09/07 08:24:19;;;;;;;1.80;1.70;;;;;;;30.94;66.63;100626.97;5081511;27;66830;-34
2022/09/07 08:26:51;;;;;;;2.28;2.08;;;;;;;30.91;66.36;100619.31;5078428;27;69767;-34
2022/09/07 08:29:23;;;;;;;;;;;;;;;30.62;67.14;100618.97;5079105;28;67224;-33
2022/09/07 08:31:56;;;;;;;2.50;1.73;;;;;;;30.87;66.05;100615.38;5079206;27;70402;-33
2022/09/07 08:34:29;;;;;;;2.45;1.95;;;;;;;30.93;66.28;100626.16;5077659;28;66996;-33
2022/09/07 08:37:00;;;;;;;;;;;;;;;30.64;67.08;100627.69;5093782;27;70165;-33
2022/09/07 08:39:33;;;;;;;2.28;1.48;;;;;;;30.81;66.39;100617.09;5080174;28;67236;-34
2022/09/07 08:42:10;;;;;;;1.60;1.50;;;;;;;30.82;66.37;100597.13;5076512;28;70743;-33
2022/09/07 08:45:05;;;;;;;1.63;1.52;;;;;;;30.76;66.44;100597.16;5078801;28;67066;-34
2022/09/07 08:47:51;;;;;;;2.28;1.60;;;;;;;30.89;66.58;100618.69;5077053;28;70403;-33
2022/09/07 08:50:36;;;;;;;1.63;1.50;;;;;;;30.85;66.17;100610.19;5075643;27;66854;-33
2022/09/07 08:53:17;;;;;;;1.92;1.65;;;;;;;30.92;65.80;100624.50;5076977;28;70307;-33
2022/09/07 08:56:26;;;;;;;2.40;1.65;;;;;;;30.82;66.29;100623.38;5079179;28;66565;-34
2022/09/07 08:59:31;;;;;;;3.10;1.95;;;;;;;30.90;66.39;100621.19;5077916;28;70101;-34
2022/09/07 09:02:07;;;;;;;2.38;1.65;;;;;;;30.92;66.09;100623.66;5066419;28;67251;-35
2022/09/07 09:05:00;;;;;;;1.80;1.70;;;;;;;30.84;66.57;100605.00;5076892;28;70586;-35
2022/09/07 09:08:03;;;;;;;2.47;1.60;;;;;;;30.89;66.63;100619.50;5068309;28;66225;-33
2022/09/07 09:10:38;;;;;;;3.20;1.95;;;;;;;30.93;66.23;100619.91;5077199;28;70919;-35
2022/09/07 09:13:17;;;;;;;3.67;1.67;;;;;;;30.77;66.55;100594.22;5080520;27;66612;-34
2022/09/07 09:16:12;;;;;;;2.10;1.55;;;;;;;30.87;66.65;100620.78;5072139;27;71293;-32
2022/09/07 09:19:11;;;;;;;2.35;1.70;;;;;;;30.85;66.13;100610.19;5075505;28;66256;-34
2022/09/07 09:21:44;;;;;;;1.58;1.48;;;;;;;30.94;66.07;100626.97;5066295;28;70835;-33
2022/09/07 09:24:18;;;;;;;2.33;1.60;;;;;;;30.91;66.37;100622.81;5068244;28;66235;-34
2022/09/07 09:26:55;;;;;;;1.45;1.35;;;;;;;30.20;65.97;100502.41;5078154;28;70547;-34
2022/09/07 09:29:28;;;;;;;3.65;1.88;;;;;;;30.95;65.96;100628.59;5080169;27;66759;-34
2022/09/07 09:32:40;;;;;;;1.40;1.13;;;;;;;30.88;66.18;100627.88;5075005;28;70887;-34
2022/09/07 09:35:23;;;;;;;12.88;2.17;;;;;;;30.75;67.88;100600.91;5077323;28;65917;-33
2022/09/07 09:37:56;;;;;;;3.22;1.90;;;;;;;30.88;67.93;100622.47;5075506;28;70577;-34
2022/09/07 09:40:36;;;;;;;3.60;1.55;;;;;;;30.79;68.01;100602.13;5071844;28;67265;-33
2022/09/07 09:43:20;;;;;;;2.08;1.48;;;;;;;30.89;67.91;100634.94;5075325;27;70547;-33
2022/09/07 09:45:55;;;;;;;4.00;1.98;;;;;;;30.54;67.96;100567.84;5078524;28;66685;-33
2022/09/07 09:48:48;;;;;;;3.30;2.15;;;;;;;30.96;67.92;100630.28;5077145;28;70314;-33
2022/09/07 09:51:23;;;;;;;2.45;2.20;;;;;;;30.98;67.66;100632.75;5078613;27;66890;-34
2022/09/07 09:54:32;;;;;;;4.47;2.40;;;;;;;30.53;68.08;100568.88;5077973;27;71060;-35
2022/09/07 09:57:04;;;;;;;3.17;2.80;;;;;;;30.99;67.48;100646.09;5079098;28;66878;-34
2022/09/07 09:59:38;;;;;;;3.13;2.88;;;;;;;30.93;68.01;100636.16;5079209;28;70215;-33
2022/09/07 10:03:07;;;;;;;3.67;2.80;;;;;;;30.90;67.64;100652.88;5078315;28;66536;-34
2022/09/07 10:06:07;;;;;;;3.25;2.95;;;;;;;30.57;67.77;100590.94;5076723;28;70593;-33
2022/09/07 10:08:53;;;;;;;3.67;3.20;;;;;;;30.89;67.86;100645.78;5078889;27;66631;-32
2022/09/07 10:11:44;;;;;;;6.20;3.20;;;;;;;30.82;68.37;100655.88;5078302;28;70722;-33
2022/09/07 10:14:44;;;;;;;12.68;3.80;;;;;;;30.65;69.44;100623.94;5077309;28;66854;-32
2022/09/07 10:17:26;;;;;;;24.38;4.22;;;;;;;30.88;70.21;100665.78;5076491;28;70026;-33
2022/09/07 10:20:20;;;;;;;25.33;4.93;;;;;;;30.43;70.92;100614.59;5072002;28;66811;-33
2022/09/07 10:22:52;;;;;;;11.93;4.22;;;;;;;30.73;71.29;100669.69;5092993;27;70906;-33
2022/09/07 10:25:26;;;;;;;18.23;4.40;;;;;;;30.72;72.04;100678.84;5070923;28;67107;-33
2022/09/07 10:28:10;;;;;;;9.40;4.45;;;;;;;30.67;72.23;100684.13;5075777;27;70390;-34
2022/09/07 10:31:06;;;;;;;13.43;5.68;;;;;;;30.65;72.07;100672.66;5091289;27;65241;-33
2022/09/07 10:33:59;;;;;;;5.95;4.97;;;;;;;30.40;73.35;100655.66;5076079;28;69622;-33
2022/09/07 10:37:08;;;;;;;12.00;4.72;;;;;;;30.62;73.09;100689.38;5076079;28;67414;-33
2022/09/07 10:40:04;;;;;;;8.77;4.85;;;;;;;30.44;73.22;100670.38;5075046;27;68604;-38
2022/09/07 10:42:42;;;;;;;6.68;4.82;;;;;;;30.60;73.17;100696.88;5076631;28;66762;-33
2022/09/07 10:45:40;;;;;;;4.78;4.32;;;;;;;30.59;72.90;100700.66;5074125;28;71030;-33
2022/09/07 10:48:31;;;;;;;5.50;3.75;;;;;;;30.64;72.54;100703.47;5073931;28;66715;-33
2022/09/07 10:51:13;;;;;;;6.78;3.75;;;;;;;30.34;72.27;100659.22;5071907;28;70832;-33
2022/09/07 10:53:52;;;;;;;4.30;4.00;;;;;;;29.96;72.03;100593.34;5074041;28;66593;-37
2022/09/07 10:56:56;;;;;;;5.25;4.00;;;;;;;30.75;72.12;100718.19;5082072;27;70836;-33
2022/09/07 10:59:34;;;;;;;7.55;3.55;;;;;;;30.81;71.70;100727.31;5070810;28;67064;-33
2022/09/07 11:02:35;;;;;;;4.78;4.38;;;;;;;30.82;71.69;100727.09;5077279;28;71177;-33
2022/09/07 11:05:33;;;;;;;4.00;3.70;;;;;;;30.77;72.69;100724.19;5079731;28;66328;-34
2022/09/07 11:08:33;;;;;;;4.05;3.75;;;;;;;30.80;72.22;100728.38;5072158;28;70695;-33
2022/09/07 11:12:04;;;;;;;4.43;4.13;;;;;;;30.79;73.06;100732.13;5070397;28;67077;-32
2022/09/07 11:14:45;;;;;;;4.57;4.28;;;;;;;30.86;72.54;100732.91;5060355;28;70827;-33
2022/09/07 11:17:24;;;;;;;4.00;3.55;;;;;;;30.42;72.10;100673.31;5086820;27;66228;-32
2022/09/07 11:20:17;;;;;;;4.07;3.78;;;;;;;30.86;72.61;100754.56;5076049;28;70847;-33
2022/09/07 11:22:52;;;;;;;3.92;3.63;;;;;;;30.91;72.31;100746.59;5069464;27;66454;-33
2022/09/07 11:25:51;;;;;;;3.60;3.40;;;;;;;30.81;72.44;100747.09;5087021;27;70372;-34
2022/09/07 11:29:09;;;;;;;3.42;3.13;;;;;;;30.80;72.39;100752.75;5069623;28;66676;-32
2022/09/07 11:32:11;;;;;;;5.60;3.58;;;;;;;30.46;72.00;100689.94;5069060;28;69873;-36
2022/09/07 11:34:46;;;;;;;4.03;3.57;;;;;;;30.43;71.84;100690.38;5076990;27;66626;-34
2022/09/07 11:37:54;;;;;;;9.20;3.42;;;;;;;30.84;72.39;100762.06;5075816;27;70069;-37
2022/09/07 11:41:18;;;;;;;9.82;3.83;;;;;;;30.66;72.99;100763.66;5037798;28;66992;-36
2022/09/07 11:44:04;;;;;;;5.00;3.80;;;;;;;30.75;72.89;100774.22;5068628;28;70221;-35
2022/09/07 11:46:45;;;;;;;6.57;3.30;;;;;;;30.30;73.76;100709.44;5077289;27;66896;-35
2022/09/07 11:49:23;;;;;;;3.75;3.50;;;;;;;30.66;73.51;100781.78;5077454;27;70697;-34
2022/09/07 11:52:08;;;;;;;5.35;3.83;;;;;;;30.47;73.88;100757.34;5077668;27;65890;-33
2022/09/07 11:54:45;;;;;;;3.08;2.88;;;;;;;30.62;74.13;100778.72;5065252;28;70721;-35
2022/09/07 11:57:32;;;;;;;4.45;3.97;;;;;;;30.60;74.43;100783.50;5074977;28;66405;-35
2022/09/07 12:00:22;;;;;;;5.90;4.05;;;;;;;30.59;74.39;100791.84;5075209;28;70032;-36
2022/09/07 12:03:03;;;;;;;8.68;3.75;;;;;;;30.56;74.60;100786.88;5076744;28;66810;-35
2022/09/07 12:05:57;;;;;;;4.65;4.25;;;;;;;30.48;74.42;100793.41;5077477;28;70797;-33
2022/09/07 12:08:55;;;;;;;4.18;3.88;;;;;;;30.54;74.68;100789.81;5075706;28;66022;-34
2022/09/07 12:11:37;;;;;;;4.82;4.25;;;;;;;30.57;74.67;100794.78;5079582;28;71023;-35
2022/09/07 12:14:32;;;;;;;5.80;5.40;;;;;;;30.56;74.91;100793.09;5077320;27;67534;-35
2022/09/07 12:17:15;;;;;;;9.20;5.30;;;;;;;30.59;74.42;100798.09;5077428;28;71588;-33
2022/09/07 12:20:20;;;;;;;5.43;5.03;;;;;;;30.10;74.89;100723.91;5076448;28;67027;-36
2022/09/07 12:23:14;;;;;;;5.63;5.22;;;;;;;29.84;74.92;100674.34;5080229;28;70104;-33